Time;durP1;ratioP1;P1;durP2;ratioP2;P2;SDS_P1;SDS_P2;PMS_P1;PMS_P2;Temp;Humidity;BMP_temperature;BMP_pressure;BME280_temperature;BME280_humidity;BME280_pressure;Samples;Min_cycle;Max_cycle;Signal;HPM_P1;HPM_P2
2022/07/14 00:00:39;;;;;;;6.72;1.23;;;16.80;99.00;;;;;;4986471;28;20492;-41
2022/07/14 00:03:04;;;;;;;7.47;1.50;;;16.80;99.20;;;;;;4980305;28;20042;-42
2022/07/14 00:05:31;;;;;;;5.88;1.30;;;16.70;99.20;;;;;;4984304;28;20128;-44
2022/07/14 00:07:57;;;;;;;6.25;1.52;;;16.70;99.40;;;;;;4978611;28;20070;-43
2022/07/14 00:10:23;;;;;;;4.57;1.30;;;16.60;99.60;;;;;;4984791;28;20061;-44
2022/07/14 00:12:49;;;;;;;7.63;1.48;;;16.60;99.70;;;;;;4986720;28;20388;-43
2022/07/14 00:15:14;;;;;;;7.60;1.30;;;16.60;99.80;;;;;;4983724;28;20382;-42
2022/07/14 00:17:40;;;;;;;6.03;1.23;;;16.50;99.80;;;;;;4987236;28;20755;-43
2022/07/14 00:20:06;;;;;;;6.90;1.55;;;16.50;99.90;;;;;;4984421;28;20027;-45
2022/07/14 00:22:32;;;;;;;7.38;1.75;;;16.50;99.90;;;;;;4983587;28;20133;-43
2022/07/14 00:24:58;;;;;;;4.30;0.98;;;16.50;99.90;;;;;;4982556;28;20582;-41
2022/07/14 00:27:23;;;;;;;6.30;1.50;;;16.50;99.90;;;;;;4980406;28;20503;-42
2022/07/14 00:29:49;;;;;;;4.70;1.38;;;16.40;99.90;;;;;;4984322;28;20052;-43
2022/07/14 00:32:15;;;;;;;10.07;1.60;;;16.40;99.90;;;;;;4986744;28;20038;-42
2022/07/14 00:34:41;;;;;;;7.28;1.08;;;16.30;99.90;;;;;;4985705;28;20129;-42
2022/07/14 00:37:06;;;;;;;7.90;2.33;;;16.30;99.90;;;;;;4983745;28;20046;-45
2022/07/14 00:39:54;;;;;;;7.25;1.50;;;16.30;99.90;;;;;;4984485;28;20038;-43
2022/07/14 00:42:32;;;;;;;6.68;1.98;;;16.30;99.90;;;;;;4983650;28;20047;-42
2022/07/14 00:44:59;;;;;;;10.00;1.75;;;16.20;99.90;;;;;;4987485;28;20104;-42
2022/07/14 00:47:24;;;;;;;5.20;1.42;;;16.20;99.90;;;;;;4987115;28;20126;-42
2022/07/14 00:49:55;;;;;;;9.05;1.60;;;16.10;99.90;;;;;;4984629;28;20109;-43
2022/07/14 00:52:22;;;;;;;9.98;1.45;;;16.10;99.90;;;;;;4984188;28;20042;-42
2022/07/14 00:54:48;;;;;;;5.55;1.40;;;16.10;99.90;;;;;;4983781;28;20046;-42
2022/07/14 00:57:14;;;;;;;9.90;1.75;;;16.00;99.90;;;;;;4984523;28;20034;-42
2022/07/14 00:59:39;;;;;;;8.18;1.65;;;16.00;99.90;;;;;;4985783;28;20038;-45
2022/07/14 01:02:05;;;;;;;5.95;1.33;;;16.00;99.90;;;;;;4984532;28;20068;-43
2022/07/14 01:04:31;;;;;;;11.75;1.50;;;16.00;99.90;;;;;;4984346;28;20496;-44
2022/07/14 01:06:56;;;;;;;6.38;1.40;;;16.00;99.90;;;;;;4983896;28;20076;-42
2022/07/14 01:09:22;;;;;;;8.20;1.40;;;15.90;99.90;;;;;;4987577;28;20046;-43
2022/07/14 01:11:48;;;;;;;9.00;1.85;;;15.90;99.90;;;;;;4987306;28;20045;-43
2022/07/14 01:14:13;;;;;;;6.43;1.73;;;15.90;99.90;;;;;;4982522;28;20046;-42
2022/07/14 01:16:39;;;;;;;5.68;1.30;;;15.90;99.90;;;;;;4980713;28;20122;-42
2022/07/14 01:19:05;;;;;;;5.25;1.42;;;15.90;99.90;;;;;;4984409;28;20069;-42
2022/07/14 01:21:31;;;;;;;5.10;1.55;;;15.80;99.90;;;;;;4980535;28;20038;-43
2022/07/14 01:23:56;;;;;;;4.55;1.58;;;15.70;99.90;;;;;;4979061;28;20065;-42
2022/07/14 01:26:24;;;;;;;5.45;1.52;;;15.70;99.90;;;;;;4980533;28;20073;-45
2022/07/14 01:28:49;;;;;;;6.90;1.60;;;15.70;99.90;;;;;;4979005;28;20038;-42
2022/07/14 01:31:15;;;;;;;5.88;1.25;;;15.70;99.90;;;;;;4980985;28;20046;-41
2022/07/14 01:33:41;;;;;;;8.20;1.50;;;15.70;99.90;;;;;;4981586;28;20042;-41
2022/07/14 01:36:07;;;;;;;10.40;1.85;;;15.70;99.90;;;;;;4985074;28;20177;-42
2022/07/14 01:38:32;;;;;;;5.47;1.23;;;15.60;99.90;;;;;;4978816;28;20038;-45
2022/07/14 01:40:58;;;;;;;8.35;1.63;;;15.60;99.90;;;;;;4981011;28;20644;-44
2022/07/14 01:43:23;;;;;;;7.45;1.50;;;15.60;99.90;;;;;;4978631;28;20510;-46
2022/07/14 01:45:49;;;;;;;9.73;1.92;;;15.60;99.90;;;;;;4987457;28;20035;-42
2022/07/14 01:48:15;;;;;;;7.38;1.60;;;15.50;99.90;;;;;;4986644;28;20116;-43
2022/07/14 01:50:40;;;;;;;8.02;1.55;;;15.50;99.90;;;;;;4982714;28;20510;-43
2022/07/14 01:53:06;;;;;;;6.07;1.73;;;15.50;99.90;;;;;;4981556;28;20034;-43
2022/07/14 01:55:32;;;;;;;5.35;1.30;;;15.40;99.90;;;;;;4983351;28;20034;-44
2022/07/14 01:57:58;;;;;;;5.70;1.00;;;15.40;99.90;;;;;;4982910;28;20034;-48
2022/07/14 02:00:24;;;;;;;3.22;0.98;;;15.30;99.90;;;;;;4985005;28;20607;-45
2022/07/14 02:02:50;;;;;;;7.50;1.10;;;15.20;99.90;;;;;;4984591;28;20149;-41
2022/07/14 02:05:16;;;;;;;5.35;1.10;;;15.10;99.90;;;;;;4980116;28;20510;-43
2022/07/14 02:07:42;;;;;;;3.38;1.10;;;15.10;99.90;;;;;;4986598;28;20046;-48
2022/07/14 02:12:52;;;;;;;5.22;1.48;;;14.90;99.90;;;;;;4982978;28;20051;-41
2022/07/14 02:15:18;;;;;;;7.53;1.55;;;14.90;99.90;;;;;;4979879;28;20126;-42
2022/07/14 02:17:44;;;;;;;6.25;1.50;;;14.90;99.90;;;;;;4979693;28;20513;-42
2022/07/14 02:20:10;;;;;;;4.85;1.17;;;14.90;99.90;;;;;;4978011;28;20042;-42
2022/07/14 02:22:36;;;;;;;5.85;1.60;;;14.90;99.90;;;;;;4980998;28;20054;-46
2022/07/14 02:25:02;;;;;;;5.72;1.23;;;15.00;99.90;;;;;;4978631;28;20121;-42
2022/07/14 02:27:28;;;;;;;9.18;1.75;;;14.90;99.90;;;;;;4982576;28;20038;-42
2022/07/14 02:29:54;;;;;;;4.43;1.58;;;14.90;99.90;;;;;;4982120;28;20042;-42
2022/07/14 02:32:19;;;;;;;4.88;1.42;;;14.90;99.90;;;;;;4999014;28;20093;-42
2022/07/14 02:34:45;;;;;;;5.80;1.42;;;14.90;99.90;;;;;;4980806;28;20103;-43
2022/07/14 02:37:11;;;;;;;6.13;1.80;;;14.90;99.90;;;;;;4979411;28;20026;-44
2022/07/14 02:39:37;;;;;;;8.48;1.92;;;14.80;99.90;;;;;;4984566;28;20027;-41
2022/07/14 02:42:03;;;;;;;9.05;1.73;;;14.80;99.90;;;;;;4980202;28;20057;-41
2022/07/14 02:44:29;;;;;;;4.82;1.40;;;14.80;99.90;;;;;;4985609;28;20034;-41
2022/07/14 02:46:54;;;;;;;5.10;1.40;;;14.70;99.90;;;;;;4983398;28;20034;-41
2022/07/14 02:49:20;;;;;;;9.52;2.00;;;14.70;99.90;;;;;;4980792;28;20038;-42
2022/07/14 02:51:46;;;;;;;5.00;1.30;;;14.70;99.90;;;;;;4982324;28;20196;-41
2022/07/14 02:54:12;;;;;;;4.35;1.48;;;14.70;99.90;;;;;;4979203;28;20142;-49
2022/07/14 02:56:37;;;;;;;6.55;1.70;;;14.60;99.90;;;;;;4976490;28;20049;-41
2022/07/14 02:59:07;;;;;;;5.53;1.38;;;14.50;99.90;;;;;;4986850;28;20142;-41
2022/07/14 03:01:33;;;;;;;3.78;0.85;;;14.40;99.90;;;;;;4981157;28;20114;-42
2022/07/14 03:03:59;;;;;;;2.35;0.88;;;14.40;99.90;;;;;;4983545;28;20057;-41
2022/07/14 03:06:24;;;;;;;2.92;0.85;;;14.20;99.90;;;;;;4981552;28;20520;-42
2022/07/14 03:08:50;;;;;;;3.03;0.73;;;14.10;99.90;;;;;;4977323;28;20047;-42
2022/07/14 03:11:16;;;;;;;3.70;0.82;;;14.00;99.90;;;;;;4979803;28;20709;-41
2022/07/14 03:13:42;;;;;;;2.60;0.90;;;13.90;99.90;;;;;;4984553;28;20046;-41
2022/07/14 03:16:09;;;;;;;4.35;0.90;;;13.90;99.90;;;;;;4984819;28;20124;-41
2022/07/14 03:18:39;;;;;;;2.67;0.70;;;13.90;99.90;;;;;;4980457;28;20077;-45
2022/07/14 03:21:09;;;;;;;1.25;0.60;;;13.90;99.90;;;;;;4981447;28;20053;-42
2022/07/14 03:23:35;;;;;;;3.15;0.68;;;13.90;99.90;;;;;;4981138;28;20046;-43
2022/07/14 03:26:01;;;;;;;4.63;0.93;;;13.90;99.90;;;;;;4981493;28;20267;-42
2022/07/14 03:28:28;;;;;;;2.38;0.73;;;13.90;99.90;;;;;;4981669;28;20098;-43
2022/07/14 03:30:59;;;;;;;6.35;1.00;;;14.00;99.90;;;;;;4979877;28;20173;-42
2022/07/14 03:33:24;;;;;;;6.28;1.10;;;14.00;99.90;;;;;;4981003;28;20164;-41
2022/07/14 03:35:51;;;;;;;4.00;0.80;;;14.00;99.90;;;;;;4979648;28;20589;-50
2022/07/14 03:38:17;;;;;;;4.63;1.20;;;14.10;99.90;;;;;;4977093;28;20068;-42
2022/07/14 03:40:43;;;;;;;2.17;0.80;;;14.10;99.90;;;;;;4982562;28;20081;-41
2022/07/14 03:43:09;;;;;;;3.30;1.08;;;14.10;99.90;;;;;;4983600;28;20113;-42
2022/07/14 03:45:34;;;;;;;3.00;0.95;;;14.10;99.90;;;;;;4979776;28;20050;-44
2022/07/14 03:48:00;;;;;;;4.10;0.90;;;14.10;99.90;;;;;;4983385;28;20038;-42
2022/07/14 03:50:26;;;;;;;2.03;0.82;;;14.10;99.90;;;;;;4982999;28;20042;-47
2022/07/14 03:52:51;;;;;;;2.25;0.60;;;14.10;99.90;;;;;;4985514;28;20073;-42
2022/07/14 03:55:18;;;;;;;1.20;0.50;;;14.10;99.90;;;;;;4984838;28;20054;-41
2022/07/14 03:57:43;;;;;;;1.60;0.40;;;14.10;99.90;;;;;;4985996;28;20466;-42
2022/07/14 04:00:10;;;;;;;1.75;0.60;;;14.10;99.90;;;;;;4983851;28;20046;-44
2022/07/14 04:02:36;;;;;;;2.97;0.50;;;14.10;99.90;;;;;;4987369;28;20082;-41
2022/07/14 04:05:02;;;;;;;1.85;0.75;;;14.00;99.90;;;;;;4982493;28;20089;-42
2022/07/14 04:07:28;;;;;;;2.20;0.30;;;14.00;99.90;;;;;;4981957;28;20046;-49
2022/07/14 04:09:54;;;;;;;1.35;0.50;;;14.00;99.90;;;;;;4979404;28;20047;-43
2022/07/14 04:12:19;;;;;;;3.70;0.63;;;14.00;99.90;;;;;;4986257;28;20038;-43
2022/07/14 04:14:45;;;;;;;1.98;0.60;;;14.00;99.90;;;;;;4988536;28;20042;-42
2022/07/14 04:17:11;;;;;;;2.20;0.50;;;14.00;99.90;;;;;;4986904;28;20118;-42
2022/07/14 04:19:36;;;;;;;3.67;0.60;;;14.00;99.90;;;;;;4989657;28;20449;-42
2022/07/14 04:22:02;;;;;;;1.58;0.50;;;14.10;99.90;;;;;;4982739;28;20034;-41
2022/07/14 04:24:28;;;;;;;2.35;0.60;;;14.10;99.90;;;;;;4984311;28;20121;-41
2022/07/14 04:26:53;;;;;;;1.67;0.70;;;14.10;99.90;;;;;;4981306;28;20237;-43
2022/07/14 04:29:19;;;;;;;2.00;0.65;;;14.20;99.90;;;;;;4987046;28;20479;-41
2022/07/14 04:31:44;;;;;;;1.45;0.50;;;14.20;99.90;;;;;;4988215;28;20050;-41
2022/07/14 04:34:10;;;;;;;2.33;0.60;;;14.30;99.90;;;;;;4983923;28;20082;-42
2022/07/14 04:36:36;;;;;;;3.92;0.68;;;14.30;99.90;;;;;;4982074;28;20038;-41
2022/07/14 04:39:05;;;;;;;3.10;0.82;;;14.40;99.90;;;;;;4982578;28;20054;-45
2022/07/14 04:41:31;;;;;;;1.75;0.70;;;14.40;99.90;;;;;;4985850;28;20045;-43
2022/07/14 04:43:57;;;;;;;3.30;0.60;;;14.50;99.90;;;;;;4982118;28;20031;-41
2022/07/14 04:46:23;;;;;;;1.40;0.63;;;14.50;99.90;;;;;;4987098;28;20103;-44
2022/07/14 04:54:17;;;;;;;3.97;0.93;;;14.70;99.90;;;;;;4983230;28;20058;-42
2022/07/14 04:56:43;;;;;;;3.92;1.23;;;14.80;99.90;;;;;;4984575;28;20044;-43
2022/07/14 04:59:08;;;;;;;3.53;0.90;;;14.90;99.90;;;;;;4983634;28;20101;-42
2022/07/14 05:01:34;;;;;;;5.10;1.23;;;14.90;99.90;;;;;;4980080;28;20445;-42
2022/07/14 05:04:00;;;;;;;6.93;1.33;;;15.00;99.90;;;;;;4977539;28;20425;-42
2022/07/14 05:06:25;;;;;;;5.43;1.27;;;15.10;99.90;;;;;;4988366;28;20081;-43
2022/07/14 05:08:51;;;;;;;5.43;1.17;;;15.10;99.90;;;;;;4988262;28;20046;-43
2022/07/14 05:11:17;;;;;;;5.18;1.30;;;15.20;99.90;;;;;;4982659;28;20231;-42
2022/07/14 05:13:43;;;;;;;3.88;0.90;;;15.30;99.90;;;;;;4986412;28;20043;-52
2022/07/14 05:16:09;;;;;;;4.75;0.95;;;15.40;99.90;;;;;;4983931;28;20113;-43
2022/07/14 05:18:35;;;;;;;2.80;0.88;;;15.40;99.90;;;;;;4983010;28;20162;-46
2022/07/14 05:21:00;;;;;;;5.85;1.10;;;15.40;99.90;;;;;;4985965;28;20495;-45
2022/07/14 05:23:26;;;;;;;4.15;1.00;;;15.40;99.90;;;;;;4980993;28;20452;-45
2022/07/14 05:25:52;;;;;;;4.47;0.98;;;15.30;99.90;;;;;;4981506;28;20503;-42
2022/07/14 05:28:17;;;;;;;3.47;0.60;;;15.20;99.90;;;;;;4982357;28;20069;-44
2022/07/14 05:30:43;;;;;;;4.07;0.70;;;15.30;99.90;;;;;;4980137;28;20046;-47
2022/07/14 05:33:09;;;;;;;4.00;0.82;;;15.30;99.90;;;;;;4981566;28;20061;-42
2022/07/14 05:35:34;;;;;;;2.55;0.70;;;15.40;99.90;;;;;;4981968;28;20043;-43
2022/07/14 05:38:00;;;;;;;3.35;0.90;;;15.50;99.90;;;;;;4979257;28;20262;-44
2022/07/14 05:40:26;;;;;;;5.13;1.15;;;15.50;99.90;;;;;;4983019;28;20040;-44
2022/07/14 05:42:52;;;;;;;5.20;1.00;;;15.50;99.90;;;;;;4983618;28;20061;-43
2022/07/14 05:45:17;;;;;;;6.22;1.27;;;15.60;99.90;;;;;;4985939;28;20069;-44
2022/07/14 05:47:43;;;;;;;5.60;1.17;;;15.70;99.90;;;;;;4982266;28;20046;-45
2022/07/14 05:50:09;;;;;;;5.18;1.02;;;15.70;99.90;;;;;;4983834;28;20400;-44
2022/07/14 05:52:35;;;;;;;10.20;2.05;;;15.70;99.90;;;;;;4983119;28;20038;-45
2022/07/14 05:55:01;;;;;;;2.40;0.90;;;15.80;99.90;;;;;;4981265;28;20474;-45
2022/07/14 05:57:27;;;;;;;3.88;1.23;;;15.90;99.90;;;;;;4981038;28;20117;-48
2022/07/14 05:59:53;;;;;;;7.20;1.23;;;16.00;99.90;;;;;;4984008;28;20061;-44
2022/07/14 06:02:19;;;;;;;6.00;1.20;;;16.10;99.90;;;;;;4980943;28;21444;-42
2022/07/14 06:04:44;;;;;;;7.70;1.10;;;16.20;99.90;;;;;;4980501;28;20061;-43
2022/07/14 06:07:10;;;;;;;5.72;1.15;;;16.30;99.90;;;;;;4983520;28;20054;-41
2022/07/14 06:09:37;;;;;;;6.10;1.30;;;16.30;99.90;;;;;;4981370;28;20077;-40
2022/07/14 06:12:05;;;;;;;5.35;1.30;;;16.40;99.90;;;;;;4982684;28;20093;-41
2022/07/14 06:14:31;;;;;;;3.95;0.98;;;16.70;99.90;;;;;;4985940;28;20061;-42
2022/07/14 06:16:57;;;;;;;6.53;1.13;;;16.80;99.90;;;;;;4976596;28;20034;-43
2022/07/14 06:19:23;;;;;;;4.95;0.70;;;16.90;99.90;;;;;;4981197;28;20049;-41
2022/07/14 06:21:49;;;;;;;4.35;0.63;;;17.20;99.90;;;;;;4986163;28;20038;-42
2022/07/14 06:24:14;;;;;;;4.47;0.88;;;17.30;99.90;;;;;;4983865;28;20046;-41
2022/07/14 06:26:41;;;;;;;1.88;0.70;;;17.60;99.90;;;;;;4985200;28;20054;-42
2022/07/14 06:29:06;;;;;;;7.53;0.70;;;18.10;99.90;;;;;;4982714;28;20297;-43
2022/07/14 06:31:34;;;;;;;4.07;0.63;;;18.40;98.50;;;;;;4988611;28;20040;-41
2022/07/14 06:34:00;;;;;;;4.70;0.90;;;18.70;97.20;;;;;;4987253;28;20046;-42
2022/07/14 06:36:26;;;;;;;4.45;0.55;;;18.90;96.20;;;;;;4983492;28;20038;-43
2022/07/14 06:38:53;;;;;;;4.28;0.82;;;19.10;95.20;;;;;;4982765;28;20042;-42
2022/07/14 06:41:22;;;;;;;4.50;0.68;;;19.10;95.30;;;;;;4981106;28;20042;-50
2022/07/14 06:43:48;;;;;;;3.55;0.68;;;19.20;94.70;;;;;;4985538;28;20042;-41
2022/07/14 06:46:15;;;;;;;5.75;1.05;;;19.20;94.50;;;;;;4983174;28;20125;-41
2022/07/14 06:48:41;;;;;;;4.38;0.70;;;19.30;94.10;;;;;;4982232;28;20074;-44
2022/07/14 06:51:07;;;;;;;6.57;0.88;;;19.30;94.00;;;;;;4984662;28;20045;-44
2022/07/14 06:53:33;;;;;;;4.60;0.65;;;19.30;93.40;;;;;;4984981;28;20042;-43
2022/07/14 06:55:59;;;;;;;2.70;0.60;;;19.30;93.40;;;;;;4980835;28;20112;-41
2022/07/14 06:58:24;;;;;;;6.85;0.80;;;19.20;93.10;;;;;;4983860;28;21521;-41
2022/07/14 07:00:50;;;;;;;5.57;0.60;;;19.20;93.00;;;;;;4982152;28;20073;-46
2022/07/14 07:03:16;;;;;;;1.92;0.43;;;19.20;92.80;;;;;;4981188;28;20412;-42
2022/07/14 07:08:28;;;;;;;3.97;0.70;;;19.20;92.30;;;;;;4983938;28;20045;-42
2022/07/14 07:10:56;;;;;;;4.28;1.23;;;19.30;92.00;;;;;;4984681;28;20052;-44
2022/07/14 07:13:22;;;;;;;4.88;0.88;;;19.50;91.50;;;;;;4984806;28;20192;-49
2022/07/14 07:15:48;;;;;;;1.77;0.60;;;19.60;91.10;;;;;;4982531;28;20105;-42
2022/07/14 07:18:13;;;;;;;4.07;0.90;;;19.80;90.80;;;;;;4978597;28;20460;-41
2022/07/14 07:20:39;;;;;;;6.55;1.10;;;19.90;90.40;;;;;;4983674;28;20209;-43
2022/07/14 07:23:05;;;;;;;2.92;0.93;;;20.00;90.00;;;;;;4980686;28;21712;-43
2022/07/14 07:25:31;;;;;;;4.53;0.80;;;20.00;90.20;;;;;;4981136;28;20472;-42
2022/07/14 07:27:58;;;;;;;3.40;0.75;;;20.00;90.10;;;;;;4986151;28;20035;-46
2022/07/14 07:30:24;;;;;;;3.25;0.80;;;20.00;89.70;;;;;;4986720;28;20053;-44
2022/07/14 07:32:50;;;;;;;4.22;0.85;;;20.10;89.80;;;;;;4985680;28;20456;-43
2022/07/14 07:35:16;;;;;;;7.13;0.77;;;20.10;90.00;;;;;;4987158;28;20510;-44
2022/07/14 07:37:42;;;;;;;7.55;0.88;;;20.10;89.90;;;;;;4980379;28;20049;-42
2022/07/14 07:40:08;;;;;;;3.25;0.93;;;20.10;90.00;;;;;;4982870;28;20050;-43
2022/07/14 07:42:34;;;;;;;5.25;0.93;;;20.00;89.90;;;;;;4985975;28;20034;-40
2022/07/14 07:45:00;;;;;;;4.80;1.20;;;20.00;90.00;;;;;;4988873;28;20487;-43
2022/07/14 07:47:27;;;;;;;5.10;1.05;;;20.00;90.00;;;;;;4987377;28;20054;-42
2022/07/14 07:49:53;;;;;;;3.80;1.08;;;20.10;89.80;;;;;;4985237;28;20042;-48
2022/07/14 07:52:18;;;;;;;2.88;0.82;;;20.30;89.70;;;;;;4988385;28;20072;-41
2022/07/14 07:54:44;;;;;;;4.53;0.90;;;20.30;88.70;;;;;;4983860;28;20702;-43
2022/07/14 07:57:11;;;;;;;4.13;1.20;;;20.20;88.80;;;;;;4987011;28;20038;-41
2022/07/14 07:59:37;;;;;;;3.80;1.17;;;20.10;89.00;;;;;;4985534;28;20050;-41
2022/07/14 08:02:02;;;;;;;5.57;1.00;;;20.20;89.00;;;;;;4984856;28;20049;-43
2022/07/14 08:04:28;;;;;;;4.03;1.00;;;20.40;88.60;;;;;;4991566;28;20092;-43
2022/07/14 08:06:54;;;;;;;7.03;1.67;;;20.60;87.80;;;;;;4989512;28;20050;-42
2022/07/14 08:09:20;;;;;;;5.32;1.42;;;20.50;87.30;;;;;;4987616;28;20038;-42
2022/07/14 08:11:45;;;;;;;3.80;1.13;;;20.40;86.90;;;;;;4989412;28;20125;-42
2022/07/14 08:16:57;;;;;;;9.15;1.85;;;20.70;86.10;;;;;;4988137;28;20580;-41
2022/07/14 08:19:23;;;;;;;6.82;1.95;;;20.80;85.40;;;;;;4991136;28;20030;-43
2022/07/14 08:21:49;;;;;;;5.72;1.85;;;20.90;84.60;;;;;;4983997;28;20411;-44
2022/07/14 08:24:15;;;;;;;6.00;1.83;;;21.10;83.80;;;;;;4990689;28;20046;-44
2022/07/14 08:26:41;;;;;;;7.65;2.08;;;21.20;83.60;;;;;;4986013;28;20512;-43
2022/07/14 08:29:07;;;;;;;7.47;1.92;;;21.20;83.20;;;;;;4986640;28;20039;-46
2022/07/14 08:31:33;;;;;;;7.43;2.15;;;21.10;82.90;;;;;;4986135;28;20510;-42
2022/07/14 08:33:59;;;;;;;4.68;1.75;;;21.20;83.00;;;;;;4982959;28;20043;-42
2022/07/14 08:36:24;;;;;;;7.93;1.85;;;21.20;82.50;;;;;;4984685;28;20073;-42
2022/07/14 08:38:50;;;;;;;4.18;1.75;;;21.40;82.10;;;;;;4986076;28;20042;-45
2022/07/14 08:41:16;;;;;;;6.40;1.13;;;21.40;81.70;;;;;;4981272;28;20042;-44
2022/07/14 08:43:42;;;;;;;6.03;1.55;;;21.40;80.90;;;;;;4988347;28;20496;-42
2022/07/14 08:46:08;;;;;;;4.75;0.88;;;21.40;80.40;;;;;;4988624;28;20041;-46
2022/07/14 08:48:34;;;;;;;4.75;1.00;;;21.40;80.00;;;;;;4985672;28;20042;-43
2022/07/14 08:51:00;;;;;;;2.60;1.00;;;21.30;79.60;;;;;;4987541;28;20042;-48
2022/07/14 08:53:27;;;;;;;3.50;0.90;;;21.30;79.60;;;;;;4986684;28;20126;-43
2022/07/14 08:55:53;;;;;;;3.40;0.50;;;21.50;79.00;;;;;;4989750;28;20034;-60
2022/07/14 08:58:19;;;;;;;1.55;0.40;;;21.60;77.20;;;;;;4990258;28;20046;-44
2022/07/14 09:00:44;;;;;;;1.45;0.57;;;21.70;75.50;;;;;;4988998;28;20047;-41
2022/07/14 09:03:10;;;;;;;2.67;0.50;;;21.90;74.50;;;;;;4987153;28;20061;-42
2022/07/14 09:05:41;;;;;;;2.08;0.50;;;22.10;73.20;;;;;;4988947;28;20234;-43
2022/07/14 09:08:07;;;;;;;4.57;0.60;;;22.30;71.30;;;;;;4987287;28;20049;-45
2022/07/14 09:10:32;;;;;;;4.57;0.70;;;22.40;71.40;;;;;;4986722;28;20046;-42
2022/07/14 09:13:13;;;;;;;2.05;0.40;;;22.60;70.50;;;;;;4985712;28;20133;-42
2022/07/14 09:15:46;;;;;;;3.90;0.40;;;22.70;68.90;;;;;;4987379;28;20125;-41
2022/07/14 09:18:26;;;;;;;2.55;0.57;;;22.80;69.90;;;;;;4987274;28;20484;-41
2022/07/14 09:20:54;;;;;;;4.45;0.50;;;22.80;68.90;;;;;;4987257;28;20054;-45
2022/07/14 09:23:28;;;;;;;1.85;0.38;;;22.90;69.30;;;;;;4989341;28;20045;-44
2022/07/14 09:26:17;;;;;;;2.38;0.60;;;23.00;68.00;;;;;;4983197;28;20165;-45
2022/07/14 09:28:47;;;;;;;2.63;0.38;;;23.10;65.10;;;;;;4990088;28;20109;-42
2022/07/14 09:31:31;;;;;;;2.10;0.30;;;23.20;64.90;;;;;;4985617;28;20070;-44
2022/07/14 09:33:59;;;;;;;4.25;0.50;;;23.20;62.50;;;;;;4983879;28;20125;-42
2022/07/14 09:36:37;;;;;;;5.35;0.60;;;23.10;64.60;;;;;;4987668;28;20128;-41
2022/07/14 09:39:07;;;;;;;1.20;0.30;;;23.10;64.90;;;;;;4987584;28;20096;-42
2022/07/14 09:41:38;;;;;;;2.75;0.38;;;23.10;65.50;;;;;;4985441;28;20066;-42
2022/07/14 09:44:11;;;;;;;3.08;0.40;;;23.10;65.10;;;;;;4984591;28;20042;-42
2022/07/14 09:46:57;;;;;;;6.10;0.60;;;23.10;63.50;;;;;;4987050;28;20030;-40
2022/07/14 09:49:28;;;;;;;0.82;0.20;;;23.10;62.30;;;;;;4985836;28;20038;-42
2022/07/14 09:52:03;;;;;;;1.38;0.20;;;23.20;64.20;;;;;;4986820;28;20076;-41
2022/07/14 09:54:49;;;;;;;1.88;0.43;;;23.30;62.20;;;;;;4984953;28;20052;-40
2022/07/14 09:57:15;;;;;;;2.22;0.30;;;23.40;60.90;;;;;;4986459;28;20034;-42
2022/07/14 10:00:05;;;;;;;1.95;0.60;;;23.30;62.20;;;;;;4979513;28;20061;-41
2022/07/14 10:02:31;;;;;;;2.67;0.50;;;23.40;61.10;;;;;;4987251;28;20132;-42
2022/07/14 10:05:01;;;;;;;1.70;0.50;;;23.40;62.10;;;;;;4985469;28;20522;-41
2022/07/14 10:07:33;;;;;;;1.48;0.52;;;23.40;62.20;;;;;;4985086;28;20046;-42
2022/07/14 10:10:01;;;;;;;1.15;0.30;;;23.40;62.60;;;;;;4988488;28;20054;-42
2022/07/14 10:12:27;;;;;;;4.18;0.40;;;23.50;62.00;;;;;;4983130;28;20038;-43
2022/07/14 10:14:53;;;;;;;2.88;0.20;;;23.60;62.30;;;;;;4983622;28;20931;-43
2022/07/14 10:17:20;;;;;;;1.58;0.47;;;23.70;61.60;;;;;;4986626;28;20492;-41
2022/07/14 10:19:47;;;;;;;3.92;0.50;;;23.70;60.70;;;;;;4985552;28;20072;-41
2022/07/14 10:22:14;;;;;;;1.83;0.40;;;23.60;60.70;;;;;;4985902;28;20117;-42
2022/07/14 10:24:40;;;;;;;3.10;0.40;;;23.60;60.90;;;;;;4983575;28;20035;-43
2022/07/14 10:27:06;;;;;;;3.28;0.35;;;23.50;60.90;;;;;;4988424;28;20034;-41
2022/07/14 10:29:32;;;;;;;2.00;0.38;;;23.40;61.50;;;;;;4980574;28;20049;-43
2022/07/14 10:32:28;;;;;;;3.20;0.50;;;23.30;62.00;;;;;;4980437;28;20026;-42
2022/07/14 10:35:24;;;;;;;1.67;0.38;;;23.30;61.60;;;;;;4983724;28;20464;-41
2022/07/14 10:37:53;;;;;;;2.45;0.30;;;23.40;63.20;;;;;;4983062;28;20054;-42
2022/07/14 10:40:54;;;;;;;0.93;0.35;;;23.40;61.90;;;;;;4982718;28;20034;-41
2022/07/14 10:43:23;;;;;;;2.63;0.90;;;23.30;61.60;;;;;;4966140;28;20488;-42
2022/07/14 10:45:51;;;;;;;2.53;0.35;;;23.30;62.40;;;;;;4984658;28;20376;-42
2022/07/14 10:48:34;;;;;;;1.98;0.32;;;23.20;63.40;;;;;;4983078;28;20053;-43
2022/07/14 10:51:19;;;;;;;2.20;0.38;;;23.30;61.30;;;;;;4980677;28;20065;-42
2022/07/14 10:54:10;;;;;;;2.33;0.40;;;23.30;62.40;;;;;;4981015;28;20372;-42
2022/07/14 10:56:37;;;;;;;2.20;0.30;;;23.30;61.30;;;;;;4984608;28;20101;-42
2022/07/14 10:59:24;;;;;;;1.13;0.38;;;23.30;62.30;;;;;;4984003;28;20044;-41
2022/07/14 11:02:15;;;;;;;1.17;0.30;;;23.30;62.50;;;;;;4982974;28;20030;-41
2022/07/14 11:04:59;;;;;;;2.63;0.50;;;23.40;61.20;;;;;;4982792;28;20153;-41
2022/07/14 11:07:42;;;;;;;2.05;0.40;;;23.40;62.60;;;;;;4981243;28;20073;-45
2022/07/14 11:10:16;;;;;;;6.78;0.50;;;23.40;61.30;;;;;;4984956;28;20042;-43
2022/07/14 11:13:04;;;;;;;1.67;0.25;;;23.50;62.00;;;;;;4982945;28;20061;-42
2022/07/14 11:15:42;;;;;;;1.70;0.43;;;23.50;61.50;;;;;;4985854;28;20396;-41
2022/07/14 11:18:17;;;;;;;4.45;0.70;;;23.60;62.40;;;;;;4987994;28;20074;-41
2022/07/14 11:21:07;;;;;;;1.17;0.40;;;23.60;61.10;;;;;;4982194;28;20446;-42
2022/07/14 11:23:51;;;;;;;4.05;0.50;;;23.60;61.40;;;;;;4983412;28;20149;-42
2022/07/14 11:26:32;;;;;;;1.67;0.40;;;23.60;62.20;;;;;;4985635;28;20106;-42
2022/07/14 11:28:59;;;;;;;1.90;0.45;;;23.60;61.80;;;;;;4983826;28;20596;-42
2022/07/14 11:31:25;;;;;;;0.88;0.40;;;23.60;61.80;;;;;;4986862;28;20035;-42
2022/07/14 11:36:39;;;;;;;1.38;0.35;;;23.70;62.50;;;;;;4983306;28;20046;-42
2022/07/14 11:39:16;;;;;;;2.17;0.60;;;23.80;61.30;;;;;;4983284;28;20074;-41
2022/07/14 11:42:07;;;;;;;2.90;0.25;;;23.70;61.50;;;;;;4982534;28;20124;-45
2022/07/14 11:44:35;;;;;;;2.38;0.40;;;23.70;60.90;;;;;;4984597;28;20053;-41
2022/07/14 11:47:02;;;;;;;2.67;0.50;;;23.80;61.40;;;;;;4986206;28;20125;-43
2022/07/14 11:49:29;;;;;;;2.72;0.40;;;23.90;61.60;;;;;;4981453;28;20136;-42
2022/07/14 11:51:56;;;;;;;0.82;0.30;;;23.90;61.60;;;;;;4979801;28;20383;-42
2022/07/14 11:54:22;;;;;;;1.83;0.40;;;23.90;62.40;;;;;;4980252;28;20100;-42
2022/07/14 11:56:48;;;;;;;2.42;0.40;;;23.80;62.70;;;;;;4976483;28;20034;-42
2022/07/14 11:59:18;;;;;;;2.03;0.30;;;23.60;62.90;;;;;;4981125;28;20088;-42
2022/07/14 12:01:44;;;;;;;2.33;0.30;;;23.50;64.10;;;;;;4981965;28;20092;-41
2022/07/14 12:04:14;;;;;;;3.13;0.20;;;23.60;64.50;;;;;;4985732;28;20411;-41
2022/07/14 12:06:43;;;;;;;3.72;0.40;;;23.90;62.50;;;;;;4981814;28;20129;-40
2022/07/14 12:09:09;;;;;;;3.03;0.40;;;24.10;61.80;;;;;;4983831;28;20385;-42
2022/07/14 12:11:36;;;;;;;3.78;0.60;;;24.30;61.20;;;;;;4985281;28;20049;-41
2022/07/14 12:14:02;;;;;;;3.50;0.50;;;24.30;58.70;;;;;;4983587;28;20046;-43
2022/07/14 12:16:41;;;;;;;1.73;0.20;;;24.40;57.70;;;;;;4987142;28;20370;-42
2022/07/14 12:19:07;;;;;;;5.18;0.40;;;24.60;55.20;;;;;;4986763;28;20038;-41
2022/07/14 12:21:35;;;;;;;1.05;0.30;;;24.80;53.40;;;;;;4990126;28;20491;-41
2022/07/14 12:24:01;;;;;;;3.63;0.40;;;25.10;52.20;;;;;;4984870;28;20133;-41
2022/07/14 12:26:27;;;;;;;1.25;0.20;;;25.10;51.80;;;;;;4987801;28;20046;-41
2022/07/14 12:28:58;;;;;;;0.40;0.17;;;25.10;50.90;;;;;;4984469;28;20479;-43
2022/07/14 12:31:24;;;;;;;3.58;0.30;;;25.10;50.70;;;;;;4989162;28;20038;-42
2022/07/14 12:33:53;;;;;;;1.27;0.50;;;25.20;50.20;;;;;;4986785;28;20184;-41
2022/07/14 12:36:22;;;;;;;1.45;0.38;;;25.40;49.30;;;;;;5001244;28;20539;-45
2022/07/14 12:38:48;;;;;;;1.25;0.43;;;25.50;48.60;;;;;;4984763;28;20074;-43
2022/07/14 12:41:24;;;;;;;1.67;0.50;;;25.60;48.80;;;;;;4989603;28;20554;-41
2022/07/14 12:43:51;;;;;;;1.88;0.40;;;25.70;48.00;;;;;;4985458;28;20164;-44
2022/07/14 12:46:18;;;;;;;2.53;0.50;;;25.70;48.50;;;;;;4988676;28;20038;-42
2022/07/14 12:48:50;;;;;;;3.95;0.60;;;25.70;48.60;;;;;;4987675;28;20038;-42
2022/07/14 12:51:20;;;;;;;2.58;0.40;;;25.70;49.00;;;;;;4987561;28;20400;-43
2022/07/14 12:53:57;;;;;;;1.25;0.30;;;25.70;48.50;;;;;;4984913;28;20142;-43
2022/07/14 12:56:22;;;;;;;2.88;0.30;;;25.80;48.30;;;;;;4985060;28;20141;-43
2022/07/14 12:58:48;;;;;;;2.42;0.30;;;25.90;48.00;;;;;;4982763;28;20532;-43
2022/07/14 13:01:14;;;;;;;2.53;0.60;;;25.80;46.70;;;;;;4983286;28;20180;-42
2022/07/14 13:03:40;;;;;;;0.63;0.25;;;25.80;47.30;;;;;;4986319;28;20048;-43
2022/07/14 13:06:06;;;;;;;0.60;0.20;;;25.90;46.60;;;;;;4991345;28;20097;-41